Time;durP1;ratioP1;P1;durP2;ratioP2;P2;SDS_P1;SDS_P2;PMS_P1;PMS_P2;Temp;Humidity;BMP_temperature;BMP_pressure;BME280_temperature;BME280_humidity;BME280_pressure;Samples;Min_cycle;Max_cycle;Signal;HPM_P1;HPM_P2
2021/05/22 00:01:54;;;;;;;5.13;2.40;;;16.80;69.50;;;;;;5086523;28;20470;-45
2021/05/22 00:04:22;;;;;;;4.38;2.47;;;16.60;69.70;;;;;;5096410;28;20075;-45
2021/05/22 00:06:50;;;;;;;4.28;2.55;;;16.70;69.80;;;;;;5086709;28;20098;-45
2021/05/22 00:09:17;;;;;;;3.65;2.45;;;16.70;70.10;;;;;;5095423;28;20040;-44
2021/05/22 00:11:45;;;;;;;5.40;2.88;;;16.60;70.00;;;;;;5087224;28;20049;-45
2021/05/22 00:14:13;;;;;;;3.78;2.55;;;16.70;70.10;;;;;;5094955;28;20490;-46
2021/05/22 00:16:40;;;;;;;4.97;2.30;;;16.70;70.50;;;;;;5070158;28;20469;-45
2021/05/22 00:19:08;;;;;;;3.55;2.45;;;16.80;70.70;;;;;;5094024;28;20052;-45
2021/05/22 00:21:36;;;;;;;5.00;3.10;;;16.80;70.90;;;;;;5088346;28;20052;-44
2021/05/22 00:24:04;;;;;;;3.90;2.45;;;16.90;71.30;;;;;;5093365;28;20125;-47
2021/05/22 00:26:32;;;;;;;5.78;2.42;;;17.00;71.90;;;;;;5088892;28;20084;-47
2021/05/22 00:29:07;;;;;;;4.03;2.20;;;16.90;72.40;;;;;;5093743;28;20043;-44
2021/05/22 00:31:35;;;;;;;5.05;2.70;;;16.90;72.60;;;;;;5088361;28;20498;-45
2021/05/22 00:34:03;;;;;;;3.88;2.22;;;16.90;72.80;;;;;;5092976;28;20051;-44
2021/05/22 00:36:31;;;;;;;3.88;2.30;;;17.00;73.40;;;;;;5089159;28;20402;-46
2021/05/22 00:38:58;;;;;;;4.38;2.53;;;16.90;73.50;;;;;;5092420;28;20444;-45
2021/05/22 00:41:26;;;;;;;4.55;2.30;;;16.90;72.90;;;;;;5089352;28;20044;-46
2021/05/22 00:44:02;;;;;;;6.27;2.53;;;16.90;72.00;;;;;;5091669;28;20052;-44
2021/05/22 00:46:30;;;;;;;5.65;2.95;;;16.80;72.60;;;;;;5089031;28;20295;-44
2021/05/22 00:48:58;;;;;;;4.65;3.00;;;16.70;73.90;;;;;;5092318;28;20077;-45
2021/05/22 00:51:26;;;;;;;3.83;2.05;;;16.60;74.60;;;;;;5089287;28;20040;-45
2021/05/22 00:53:53;;;;;;;5.80;2.55;;;16.60;75.00;;;;;;5091125;28;20059;-45
2021/05/22 00:56:21;;;;;;;4.13;2.05;;;16.50;75.10;;;;;;5089854;28;20449;-46
2021/05/22 00:58:52;;;;;;;3.83;2.20;;;16.50;74.90;;;;;;5091124;28;20048;-45
2021/05/22 01:01:20;;;;;;;5.18;2.20;;;16.60;74.80;;;;;;5089652;28;20147;-45
2021/05/22 01:03:52;;;;;;;4.78;2.30;;;16.60;75.30;;;;;;5090518;28;20052;-44
2021/05/22 01:06:23;;;;;;;3.10;2.03;;;16.60;75.70;;;;;;5089732;28;20056;-46
2021/05/22 01:08:57;;;;;;;4.05;2.60;;;16.60;76.20;;;;;;5090230;28;20397;-45
2021/05/22 01:11:36;;;;;;;4.50;2.30;;;16.60;77.50;;;;;;5088756;28;20056;-44
2021/05/22 01:14:11;;;;;;;3.92;2.42;;;16.50;77.10;;;;;;5092569;28;20094;-46
2021/05/22 01:16:42;;;;;;;3.73;2.40;;;16.50;77.30;;;;;;5087275;28;20055;-44
2021/05/22 01:19:27;;;;;;;3.60;2.20;;;16.50;78.40;;;;;;5092210;28;20418;-46
2021/05/22 01:21:55;;;;;;;4.13;2.33;;;16.30;79.30;;;;;;5085066;28;20044;-44
2021/05/22 01:24:24;;;;;;;4.85;2.47;;;16.30;79.80;;;;;;5094853;28;20056;-45
2021/05/22 01:26:52;;;;;;;4.07;2.03;;;16.30;80.20;;;;;;5085139;28;20048;-44
2021/05/22 01:29:20;;;;;;;5.30;3.25;;;16.20;80.80;;;;;;5093069;28;20045;-44
2021/05/22 01:31:48;;;;;;;6.13;2.38;;;16.10;81.40;;;;;;5084255;28;20060;-44
2021/05/22 01:34:16;;;;;;;4.53;2.88;;;15.90;82.30;;;;;;5093626;28;20486;-47
2021/05/22 01:36:44;;;;;;;3.17;2.00;;;15.90;83.20;;;;;;5085971;28;20044;-45
2021/05/22 01:39:11;;;;;;;3.05;2.25;;;15.80;84.00;;;;;;5093208;28;20129;-46
2021/05/22 01:41:39;;;;;;;4.05;2.05;;;15.70;84.40;;;;;;5085254;28;20496;-45
2021/05/22 01:44:09;;;;;;;3.95;2.33;;;15.50;84.10;;;;;;5092184;28;20063;-44
2021/05/22 01:46:37;;;;;;;3.80;2.35;;;15.40;83.40;;;;;;5086637;28;20068;-45
2021/05/22 01:49:13;;;;;;;8.10;2.50;;;15.30;83.30;;;;;;5092619;28;20052;-55
2021/05/22 01:51:41;;;;;;;3.38;2.08;;;15.30;84.60;;;;;;5086057;28;20078;-45
2021/05/22 01:54:11;;;;;;;4.95;2.60;;;15.40;85.20;;;;;;5092412;28;20131;-44
2021/05/22 01:56:40;;;;;;;4.53;2.53;;;15.50;87.30;;;;;;5086677;28;20049;-45
2021/05/22 01:59:08;;;;;;;3.50;2.35;;;15.40;89.50;;;;;;5092034;28;20139;-44
2021/05/22 02:01:36;;;;;;;3.13;2.13;;;15.50;89.70;;;;;;5086295;28;20045;-44
2021/05/22 02:04:06;;;;;;;6.63;3.00;;;15.50;90.10;;;;;;5091390;28;20052;-45
2021/05/22 02:06:46;;;;;;;4.72;2.17;;;15.50;90.30;;;;;;5086656;28;20048;-48
2021/05/22 02:09:15;;;;;;;3.25;2.30;;;15.50;90.70;;;;;;5091367;28;20067;-45
2021/05/22 02:11:46;;;;;;;6.72;2.97;;;15.40;91.20;;;;;;5085533;28;20387;-45
2021/05/22 02:14:19;;;;;;;4.85;2.70;;;15.20;91.50;;;;;;5092571;28;20516;-44
2021/05/22 02:16:49;;;;;;;6.03;2.80;;;15.10;91.60;;;;;;5083487;28;20104;-45
2021/05/22 02:19:21;;;;;;;8.90;3.00;;;15.00;91.70;;;;;;5091721;28;20131;-46
2021/05/22 02:21:49;;;;;;;3.05;2.67;;;15.00;91.60;;;;;;5083906;28;20049;-44
2021/05/22 02:24:23;;;;;;;5.80;2.85;;;14.90;91.90;;;;;;5093274;28;20048;-45
2021/05/22 02:27:01;;;;;;;4.82;3.22;;;14.90;92.10;;;;;;5084137;28;20052;-46
2021/05/22 02:29:30;;;;;;;5.63;2.95;;;14.90;92.30;;;;;;5094452;28;20056;-46
2021/05/22 02:32:00;;;;;;;4.85;2.60;;;15.00;92.40;;;;;;5083314;28;20055;-44
2021/05/22 02:34:37;;;;;;;4.10;3.08;;;15.00;92.50;;;;;;5094136;28;20044;-46
2021/05/22 02:37:05;;;;;;;4.60;3.17;;;14.90;92.70;;;;;;5081889;28;20044;-45
2021/05/22 02:39:35;;;;;;;4.07;2.70;;;15.00;92.90;;;;;;5054134;28;20119;-46
2021/05/22 02:42:04;;;;;;;6.18;3.22;;;15.10;93.30;;;;;;5076627;28;20495;-45
2021/05/22 02:44:35;;;;;;;7.25;3.53;;;15.10;93.80;;;;;;5054178;28;20048;-44
2021/05/22 02:47:04;;;;;;;5.00;3.13;;;15.00;94.40;;;;;;5076707;28;20398;-45
2021/05/22 02:49:40;;;;;;;4.47;2.92;;;15.00;94.90;;;;;;5053787;28;20053;-44
2021/05/22 02:52:12;;;;;;;7.15;2.65;;;15.10;95.10;;;;;;5077917;28;20056;-45
2021/05/22 02:54:41;;;;;;;6.85;2.58;;;15.20;95.40;;;;;;5094196;28;20075;-44
2021/05/22 02:57:10;;;;;;;7.13;3.30;;;15.30;95.50;;;;;;5081667;28;20488;-44
2021/05/22 02:59:40;;;;;;;5.72;2.90;;;15.40;95.40;;;;;;5094314;28;20398;-44
2021/05/22 03:02:10;;;;;;;7.28;3.15;;;15.50;95.40;;;;;;5081301;28;20069;-45
2021/05/22 03:04:37;;;;;;;5.63;2.83;;;15.50;95.10;;;;;;5094175;28;20138;-47
2021/05/22 03:07:05;;;;;;;6.18;2.95;;;15.50;95.10;;;;;;5081322;28;20057;-46
2021/05/22 03:09:33;;;;;;;6.03;3.70;;;15.50;95.00;;;;;;5093744;28;20048;-44
2021/05/22 03:12:01;;;;;;;9.38;3.28;;;15.40;95.20;;;;;;5081588;28;20406;-45
2021/05/22 03:14:29;;;;;;;7.32;3.10;;;15.40;95.50;;;;;;5093498;28;20047;-45
2021/05/22 03:16:57;;;;;;;8.15;3.35;;;15.30;95.70;;;;;;5082426;28;20138;-44
2021/05/22 03:19:25;;;;;;;5.43;3.47;;;15.10;96.10;;;;;;5092659;28;20040;-44
2021/05/22 03:21:52;;;;;;;5.15;2.92;;;15.10;96.30;;;;;;5083140;28;20090;-45
2021/05/22 03:24:20;;;;;;;7.57;4.10;;;15.00;96.70;;;;;;5092028;28;20052;-45
2021/05/22 03:26:48;;;;;;;5.78;4.13;;;14.90;97.10;;;;;;5082422;28;20088;-45
2021/05/22 03:29:16;;;;;;;13.20;3.30;;;14.80;97.70;;;;;;5091551;28;20494;-45
2021/05/22 03:31:44;;;;;;;5.50;3.55;;;14.90;97.90;;;;;;5084098;28;20095;-45
2021/05/22 03:34:11;;;;;;;4.90;3.03;;;15.00;97.90;;;;;;5090574;28;20044;-46
2021/05/22 03:36:39;;;;;;;6.32;2.70;;;15.10;97.80;;;;;;5084743;28;20135;-44
2021/05/22 03:39:07;;;;;;;4.45;2.72;;;15.20;97.90;;;;;;5090315;28;20441;-45
2021/05/22 03:41:35;;;;;;;5.88;2.85;;;15.30;98.00;;;;;;5085097;28;20044;-44
2021/05/22 03:44:03;;;;;;;5.25;2.88;;;15.40;98.00;;;;;;5089691;28;20123;-45
2021/05/22 03:46:31;;;;;;;4.75;2.75;;;15.40;97.80;;;;;;5085676;28;20056;-45
2021/05/22 03:49:00;;;;;;;8.75;3.97;;;15.30;97.70;;;;;;5089259;28;20056;-45
2021/05/22 03:51:27;;;;;;;4.88;3.15;;;15.00;97.30;;;;;;5086086;28;20044;-47
2021/05/22 03:53:55;;;;;;;5.97;3.38;;;15.00;97.00;;;;;;5088222;28;20135;-45
2021/05/22 03:56:23;;;;;;;6.38;3.70;;;15.00;96.30;;;;;;5086762;28;20055;-45
2021/05/22 03:58:53;;;;;;;6.50;3.72;;;15.00;96.20;;;;;;5087577;28;20094;-45
2021/05/22 04:01:21;;;;;;;6.50;3.47;;;14.90;95.70;;;;;;5086626;28;20050;-45
2021/05/22 04:03:48;;;;;;;6.80;3.42;;;14.80;95.90;;;;;;5087438;28;20489;-44
2021/05/22 04:06:16;;;;;;;4.50;3.00;;;14.80;96.00;;;;;;5087514;28;20048;-44
2021/05/22 04:08:44;;;;;;;6.32;3.67;;;14.80;96.10;;;;;;5086625;28;20043;-45
2021/05/22 04:11:11;;;;;;;5.60;3.38;;;14.70;96.30;;;;;;5088027;28;20482;-45
2021/05/22 04:13:39;;;;;;;6.13;3.25;;;14.90;96.00;;;;;;5085732;28;20127;-46
2021/05/22 04:16:07;;;;;;;5.65;3.92;;;14.80;96.50;;;;;;5087554;28;20516;-45
2021/05/22 04:18:34;;;;;;;5.13;3.17;;;14.90;96.50;;;;;;5085373;28;20102;-46
2021/05/22 04:21:02;;;;;;;8.40;3.05;;;15.00;96.80;;;;;;5089391;28;20097;-48
2021/05/22 04:23:30;;;;;;;5.57;2.78;;;15.10;96.90;;;;;;5084415;28;20462;-45
2021/05/22 04:25:58;;;;;;;6.78;3.75;;;15.10;97.10;;;;;;5088036;28;20101;-45
2021/05/22 04:28:25;;;;;;;5.45;3.30;;;15.10;97.10;;;;;;5082965;28;20093;-44
2021/05/22 04:30:53;;;;;;;6.38;3.83;;;15.20;97.10;;;;;;5089235;28;20097;-44
2021/05/22 04:33:21;;;;;;;4.85;2.65;;;15.20;97.20;;;;;;5083671;28;20105;-44
2021/05/22 04:35:49;;;;;;;4.45;2.92;;;15.30;97.40;;;;;;5088080;28;20040;-45
2021/05/22 04:38:16;;;;;;;14.77;3.05;;;15.50;97.10;;;;;;5082780;28;20440;-44
2021/05/22 04:40:44;;;;;;;4.22;3.20;;;15.80;96.90;;;;;;5089461;28;20049;-45
2021/05/22 04:43:13;;;;;;;4.40;2.63;;;16.10;96.60;;;;;;5083481;28;20068;-46
2021/05/22 04:45:41;;;;;;;4.07;2.42;;;16.30;96.30;;;;;;5092413;28;20514;-45
2021/05/22 04:48:10;;;;;;;4.38;2.83;;;16.50;96.30;;;;;;5087505;28;20083;-45
2021/05/22 04:50:39;;;;;;;5.07;2.42;;;16.70;96.00;;;;;;5092981;28;20049;-49
2021/05/22 04:53:06;;;;;;;4.38;2.55;;;16.90;95.80;;;;;;5087896;28;20059;-46
2021/05/22 04:55:34;;;;;;;5.13;2.38;;;17.00;95.60;;;;;;5092688;28;20044;-45
2021/05/22 04:58:02;;;;;;;4.25;2.50;;;17.10;95.60;;;;;;5087168;28;20497;-45
2021/05/22 05:00:30;;;;;;;5.43;2.53;;;17.30;95.50;;;;;;5093059;28;20171;-46
2021/05/22 05:02:57;;;;;;;6.63;2.90;;;17.50;95.10;;;;;;5087656;28;20101;-45
2021/05/22 05:05:25;;;;;;;3.55;2.50;;;17.70;94.60;;;;;;5093308;28;20047;-45
2021/05/22 05:07:53;;;;;;;4.80;2.05;;;17.90;94.40;;;;;;5086789;28;20494;-44
2021/05/22 05:10:21;;;;;;;7.82;2.85;;;18.20;94.00;;;;;;5092661;28;20497;-44
2021/05/22 05:12:52;;;;;;;7.28;3.42;;;18.40;93.20;;;;;;5086382;28;20068;-45
2021/05/22 05:15:20;;;;;;;7.40;3.13;;;18.40;93.00;;;;;;5093721;28;20452;-49
2021/05/22 05:17:48;;;;;;;6.53;3.28;;;18.20;93.00;;;;;;5086179;28;20056;-45
2021/05/22 05:20:16;;;;;;;6.28;3.65;;;18.20;93.30;;;;;;5094216;28;20036;-45
2021/05/22 05:22:43;;;;;;;3.58;1.98;;;18.30;93.20;;;;;;5085261;28;20055;-46
2021/05/22 05:25:12;;;;;;;8.27;3.75;;;18.10;93.70;;;;;;5094791;28;20056;-45
2021/05/22 05:27:39;;;;;;;4.72;2.58;;;18.20;93.80;;;;;;5082696;28;20047;-45
2021/05/22 05:30:07;;;;;;;3.72;2.40;;;18.40;93.70;;;;;;5094740;28;20410;-45
2021/05/22 05:32:35;;;;;;;5.20;2.53;;;18.50;93.70;;;;;;5084512;28;20048;-44
2021/05/22 05:35:03;;;;;;;9.40;2.83;;;18.60;93.80;;;;;;5094774;28;20044;-44
2021/05/22 05:37:31;;;;;;;2.58;1.80;;;18.70;93.40;;;;;;5085133;28;20470;-45
2021/05/22 05:39:58;;;;;;;5.85;2.13;;;18.60;93.60;;;;;;5074006;28;20040;-46
2021/05/22 05:42:26;;;;;;;6.45;2.65;;;18.70;93.20;;;;;;5083330;28;20096;-45
2021/05/22 05:44:54;;;;;;;5.10;2.08;;;18.80;93.10;;;;;;5095673;28;20075;-44
2021/05/22 05:47:22;;;;;;;5.38;1.88;;;18.90;93.00;;;;;;5083116;28;20052;-45
2021/05/22 05:49:49;;;;;;;5.68;3.08;;;19.10;92.60;;;;;;5095452;28;20097;-45
2021/05/22 05:52:17;;;;;;;3.40;2.13;;;19.30;92.10;;;;;;5082711;28;20045;-47
2021/05/22 05:54:45;;;;;;;9.77;1.92;;;19.40;91.90;;;;;;5095632;28;20051;-45
2021/05/22 05:57:13;;;;;;;4.88;1.98;;;19.50;91.50;;;;;;5081252;28;20041;-47
2021/05/22 05:59:40;;;;;;;5.13;2.30;;;19.70;91.10;;;;;;5095565;28;20123;-45
2021/05/22 06:02:08;;;;;;;5.35;2.50;;;19.90;90.60;;;;;;5081396;28;20127;-45
2021/05/22 06:04:36;;;;;;;12.05;3.22;;;20.00;89.80;;;;;;5095093;28;20139;-45
2021/05/22 06:07:04;;;;;;;4.95;2.53;;;20.00;89.70;;;;;;5081206;28;20099;-44
2021/05/22 06:09:34;;;;;;;7.18;3.05;;;19.80;88.70;;;;;;5054696;28;20518;-45
2021/05/22 06:12:03;;;;;;;4.68;2.83;;;20.00;89.40;;;;;;5076000;28;20452;-45
2021/05/22 06:14:36;;;;;;;6.20;2.85;;;20.00;89.00;;;;;;5055089;28;20052;-45
2021/05/22 06:17:04;;;;;;;6.68;3.33;;;20.10;88.30;;;;;;5077704;28;20053;-45
2021/05/22 06:19:33;;;;;;;6.55;2.97;;;20.30;87.70;;;;;;5054323;28;20140;-44
2021/05/22 06:22:01;;;;;;;7.07;2.88;;;20.50;86.60;;;;;;5076808;28;20052;-45
2021/05/22 06:24:29;;;;;;;5.20;3.30;;;20.80;86.10;;;;;;5094404;28;20052;-45
2021/05/22 06:26:57;;;;;;;6.63;2.85;;;20.70;83.60;;;;;;5083123;28;20048;-45
2021/05/22 06:29:25;;;;;;;4.60;2.65;;;20.80;83.00;;;;;;5092581;28;20498;-45
2021/05/22 06:32:05;;;;;;;6.95;3.25;;;20.60;82.80;;;;;;5019142;28;20083;-46
2021/05/22 06:34:34;;;;;;;6.00;2.42;;;20.90;82.60;;;;;;5053895;28;20505;-51
2021/05/22 06:37:02;;;;;;;6.00;3.70;;;21.30;82.40;;;;;;5077358;28;20040;-49
2021/05/22 06:39:30;;;;;;;6.22;3.22;;;21.30;81.20;;;;;;5073811;28;20098;-45
2021/05/22 06:41:58;;;;;;;4.65;2.38;;;21.60;80.70;;;;;;5081074;28;20041;-46
2021/05/22 06:44:33;;;;;;;5.22;2.30;;;21.70;79.00;;;;;;5092162;28;20506;-51
2021/05/22 06:47:01;;;;;;;6.57;2.00;;;21.80;78.30;;;;;;5081980;28;20053;-46
2021/05/22 06:49:32;;;;;;;2.95;2.17;;;22.00;78.30;;;;;;5094198;28;20044;-47
2021/05/22 06:52:02;;;;;;;2.78;1.90;;;22.20;76.60;;;;;;5082034;28;20044;-48
2021/05/22 06:54:33;;;;;;;6.07;2.03;;;22.40;75.90;;;;;;5084057;28;20493;-49
2021/05/22 06:57:01;;;;;;;4.45;1.83;;;22.40;75.20;;;;;;5085142;28;20048;-49
2021/05/22 06:59:29;;;;;;;2.58;1.52;;;22.30;75.10;;;;;;5078595;28;20054;-45
2021/05/22 07:01:57;;;;;;;4.63;1.90;;;22.50;74.60;;;;;;5086095;28;20093;-46
2021/05/22 07:04:25;;;;;;;3.60;1.70;;;22.50;73.30;;;;;;5087823;28;20490;-47
2021/05/22 07:06:53;;;;;;;4.03;1.55;;;22.40;73.20;;;;;;5081707;28;20056;-47
2021/05/22 07:09:21;;;;;;;7.13;2.95;;;22.60;73.50;;;;;;5091204;28;20055;-47
2021/05/22 07:11:49;;;;;;;4.07;1.88;;;22.90;72.70;;;;;;5081641;28;20048;-48
2021/05/22 07:14:17;;;;;;;2.88;1.75;;;22.80;71.90;;;;;;5091732;28;20054;-46
2021/05/22 07:16:45;;;;;;;3.70;1.60;;;22.70;71.40;;;;;;5084162;28;20094;-45
2021/05/22 07:19:13;;;;;;;5.43;1.95;;;22.60;70.50;;;;;;5091256;28;20128;-50
2021/05/22 07:21:41;;;;;;;6.38;2.60;;;22.60;70.50;;;;;;5084889;28;20049;-45
2021/05/22 07:24:09;;;;;;;3.58;2.05;;;22.50;68.80;;;;;;5089649;28;20093;-46
2021/05/22 07:26:37;;;;;;;3.33;1.98;;;22.50;70.40;;;;;;5084874;28;20045;-47
2021/05/22 07:29:08;;;;;;;5.13;1.67;;;22.50;69.80;;;;;;5090675;28;20051;-46
2021/05/22 07:31:39;;;;;;;4.53;1.80;;;22.60;69.20;;;;;;5085028;28;20049;-47
2021/05/22 07:34:09;;;;;;;5.70;1.95;;;22.70;68.10;;;;;;5090574;28;20131;-46
2021/05/22 07:36:38;;;;;;;2.60;1.50;;;22.90;67.40;;;;;;5083674;28;20048;-47
2021/05/22 07:39:10;;;;;;;3.60;1.55;;;23.10;67.30;;;;;;5090214;28;20051;-48
2021/05/22 07:41:40;;;;;;;3.10;1.42;;;23.40;64.50;;;;;;5083250;28;20178;-46
2021/05/22 07:44:08;;;;;;;2.85;1.50;;;23.40;63.70;;;;;;5090503;28;20493;-47
2021/05/22 07:46:36;;;;;;;3.25;1.40;;;23.50;63.30;;;;;;5085164;28;20047;-46
2021/05/22 07:49:04;;;;;;;2.40;1.25;;;23.60;62.60;;;;;;5089942;28;20044;-47
2021/05/22 07:51:33;;;;;;;4.47;1.50;;;23.70;62.10;;;;;;5085402;28;20048;-46
2021/05/22 07:54:01;;;;;;;3.55;1.98;;;23.90;63.10;;;;;;5087930;28;20083;-47
2021/05/22 07:56:29;;;;;;;11.27;1.70;;;23.60;61.80;;;;;;5084553;28;20529;-45
2021/05/22 07:58:57;;;;;;;3.72;1.52;;;23.50;61.00;;;;;;5087605;28;20044;-46
2021/05/22 08:01:25;;;;;;;8.63;2.42;;;23.50;63.10;;;;;;5086366;28;20097;-45
2021/05/22 08:03:53;;;;;;;5.22;2.38;;;23.70;68.50;;;;;;5087985;28;20071;-46
2021/05/22 08:06:21;;;;;;;5.35;2.72;;;23.70;70.40;;;;;;5086458;28;20052;-48
2021/05/22 08:08:49;;;;;;;7.25;2.55;;;23.80;66.60;;;;;;5087626;28;20101;-45
2021/05/22 08:11:17;;;;;;;4.60;2.85;;;23.70;66.20;;;;;;5085648;28;20398;-47
2021/05/22 08:13:45;;;;;;;2.97;2.20;;;23.80;67.60;;;;;;5086828;28;20044;-46
2021/05/22 08:16:13;;;;;;;4.63;2.50;;;23.50;71.80;;;;;;5087886;28;20060;-45
2021/05/22 08:18:41;;;;;;;3.92;2.10;;;23.40;79.00;;;;;;5084792;28;20063;-48
2021/05/22 08:21:08;;;;;;;5.68;2.40;;;23.60;79.80;;;;;;5092456;28;20043;-46
2021/05/22 08:23:36;;;;;;;6.00;2.13;;;23.50;79.30;;;;;;5089439;28;20056;-45
2021/05/22 08:26:04;;;;;;;3.88;2.17;;;23.30;80.80;;;;;;5093266;28;20097;-46
2021/05/22 08:28:53;;;;;;;4.18;2.30;;;23.20;78.90;;;;;;5090469;28;20506;-45
2021/05/22 08:31:22;;;;;;;3.40;1.92;;;23.00;85.20;;;;;;5090624;28;20491;-47
2021/05/22 08:33:50;;;;;;;5.15;2.70;;;23.10;86.50;;;;;;5090948;28;20048;-46
2021/05/22 08:36:17;;;;;;;4.03;1.83;;;22.80;87.50;;;;;;5091105;28;20054;-45
2021/05/22 08:38:45;;;;;;;6.05;2.38;;;22.80;88.20;;;;;;5090554;28;20075;-46
2021/05/22 08:41:14;;;;;;;6.88;2.45;;;22.70;88.50;;;;;;5091362;28;20485;-46
2021/05/22 08:43:42;;;;;;;4.25;2.22;;;22.60;87.50;;;;;;5089925;28;20044;-45
2021/05/22 08:46:11;;;;;;;3.70;2.10;;;22.50;87.20;;;;;;5091806;28;20048;-46
2021/05/22 08:48:39;;;;;;;4.20;2.47;;;22.60;89.00;;;;;;5089212;28;20064;-48
2021/05/22 08:51:08;;;;;;;5.03;2.55;;;22.40;90.10;;;;;;5091246;28;20070;-46
2021/05/22 08:53:37;;;;;;;4.03;1.90;;;22.20;89.80;;;;;;5088628;28;20048;-47
2021/05/22 08:56:05;;;;;;;4.75;2.35;;;22.10;90.30;;;;;;5092452;28;20578;-48
2021/05/22 08:58:33;;;;;;;3.75;2.75;;;22.20;90.40;;;;;;5087047;28;20044;-46
2021/05/22 09:01:02;;;;;;;3.65;2.20;;;22.00;90.50;;;;;;5092658;28;20379;-46
2021/05/22 09:03:30;;;;;;;6.00;2.03;;;22.20;90.10;;;;;;5070004;28;20048;-46
2021/05/22 09:05:58;;;;;;;6.63;3.20;;;22.20;90.00;;;;;;5092817;28;20036;-49
2021/05/22 09:08:28;;;;;;;5.50;2.22;;;22.30;90.60;;;;;;5076164;28;20056;-46
2021/05/22 09:10:56;;;;;;;4.30;2.45;;;22.30;90.00;;;;;;5077875;28;20203;-45
2021/05/22 09:13:29;;;;;;;5.43;2.67;;;22.20;89.40;;;;;;5078997;28;20528;-46
2021/05/22 09:15:58;;;;;;;5.85;2.55;;;22.10;89.10;;;;;;5086322;28;20057;-45
2021/05/22 09:18:44;;;;;;;4.03;2.38;;;22.00;90.20;;;;;;5086517;28;20132;-45
2021/05/22 09:21:14;;;;;;;6.32;2.53;;;22.10;90.70;;;;;;5088267;28;20062;-48
2021/05/22 09:23:50;;;;;;;5.07;2.90;;;22.10;90.10;;;;;;5087366;28;20052;-46
2021/05/22 09:26:18;;;;;;;4.80;2.40;;;22.00;91.00;;;;;;5088234;28;20055;-45
2021/05/22 09:28:50;;;;;;;9.90;3.45;;;21.90;91.40;;;;;;5086623;28;20056;-45
2021/05/22 09:31:21;;;;;;;3.95;1.73;;;21.70;91.90;;;;;;5087927;28;20055;-45
2021/05/22 09:33:58;;;;;;;5.18;2.30;;;21.70;92.00;;;;;;5088577;28;20059;-45
2021/05/22 09:36:26;;;;;;;9.55;2.75;;;21.70;91.50;;;;;;5087424;28;20044;-45
2021/05/22 09:38:56;;;;;;;4.57;2.13;;;21.80;91.40;;;;;;5088868;28;20060;-45
2021/05/22 09:41:27;;;;;;;4.88;2.05;;;22.00;91.30;;;;;;5087320;28;20053;-45
2021/05/22 09:44:11;;;;;;;5.80;1.85;;;22.10;91.50;;;;;;5089611;28;20116;-45
2021/05/22 09:46:45;;;;;;;12.40;2.85;;;22.10;91.30;;;;;;5085191;28;20055;-46
2021/05/22 09:49:24;;;;;;;5.75;2.40;;;22.10;91.30;;;;;;5091161;28;20569;-48
2021/05/22 09:52:04;;;;;;;3.47;1.95;;;22.10;91.20;;;;;;5083189;28;20052;-45
2021/05/22 09:54:52;;;;;;;5.45;2.60;;;22.40;90.90;;;;;;5053967;28;20325;-45
2021/05/22 09:57:42;;;;;;;3.38;1.75;;;22.40;90.40;;;;;;5080101;28;20482;-44
2021/05/22 10:00:17;;;;;;;5.25;1.70;;;22.30;90.20;;;;;;5092613;28;20052;-47
2021/05/22 10:02:50;;;;;;;4.68;2.05;;;22.30;90.60;;;;;;5082134;28;20040;-45
2021/05/22 10:05:21;;;;;;;3.35;1.63;;;22.20;89.70;;;;;;5090141;28;20708;-48
2021/05/22 10:07:55;;;;;;;2.75;1.50;;;22.20;89.10;;;;;;5084145;28;20048;-45
2021/05/22 10:10:47;;;;;;;6.32;2.80;;;22.40;89.50;;;;;;5089756;28;20513;-48
2021/05/22 10:13:20;;;;;;;2.75;1.63;;;22.50;89.00;;;;;;5080836;28;20052;-45
2021/05/22 10:15:50;;;;;;;3.13;1.50;;;22.40;84.50;;;;;;5076294;28;20627;-46
2021/05/22 10:18:20;;;;;;;4.20;2.42;;;22.60;85.50;;;;;;5084309;28;20052;-50
2021/05/22 10:20:49;;;;;;;4.72;1.70;;;22.60;84.50;;;;;;5089567;28;20041;-48
2021/05/22 10:23:18;;;;;;;3.53;1.73;;;22.80;85.60;;;;;;5084323;28;20059;-46
2021/05/22 10:25:56;;;;;;;6.28;2.00;;;22.80;85.90;;;;;;5088424;28;20138;-46
2021/05/22 10:28:25;;;;;;;4.80;1.80;;;22.80;85.30;;;;;;5084049;28;20044;-46
2021/05/22 10:30:53;;;;;;;6.78;2.35;;;22.90;86.60;;;;;;5089456;28;20115;-46
2021/05/22 10:33:21;;;;;;;4.63;1.58;;;22.80;86.90;;;;;;5084127;28;20527;-46
2021/05/22 10:35:53;;;;;;;6.00;2.13;;;22.60;86.40;;;;;;5089344;28;20055;-47
2021/05/22 10:38:32;;;;;;;7.43;1.70;;;22.70;86.50;;;;;;5084078;28;20075;-45
2021/05/22 10:41:12;;;;;;;4.57;2.78;;;22.80;86.10;;;;;;5089399;28;20075;-46
2021/05/22 10:43:49;;;;;;;6.28;2.00;;;22.70;87.60;;;;;;5076725;28;20054;-45
2021/05/22 10:46:17;;;;;;;8.88;1.80;;;22.60;87.60;;;;;;5086966;28;20051;-45
2021/05/22 10:48:49;;;;;;;5.97;1.98;;;22.40;87.50;;;;;;5085233;28;20444;-46
2021/05/22 10:51:25;;;;;;;8.27;2.95;;;22.40;88.10;;;;;;5087019;28;20075;-46
2021/05/22 10:53:56;;;;;;;5.63;1.88;;;22.60;88.50;;;;;;5087445;28;20052;-45
2021/05/22 10:56:24;;;;;;;2.80;1.40;;;22.50;88.00;;;;;;5085681;28;20053;-45
2021/05/22 10:59:11;;;;;;;3.10;1.40;;;22.50;87.60;;;;;;5087200;28;20048;-45
2021/05/22 11:01:40;;;;;;;5.65;1.80;;;22.60;87.40;;;;;;5083782;28;20135;-47
2021/05/22 11:06:46;;;;;;;4.50;1.75;;;22.60;86.30;;;;;;5083263;28;20051;-45
2021/05/22 11:09:26;;;;;;;4.10;1.55;;;22.60;86.80;;;;;;5090879;28;20044;-45
2021/05/22 11:11:54;;;;;;;6.07;1.80;;;22.50;87.00;;;;;;5086711;28;20048;-45
2021/05/22 11:14:35;;;;;;;2.33;1.60;;;22.30;88.30;;;;;;5074387;28;20132;-49
2021/05/22 11:17:21;;;;;;;8.45;2.28;;;22.60;87.80;;;;;;5077369;28;20106;-46
2021/05/22 11:20:06;;;;;;;;;;;22.60;88.20;;;;;;5052378;28;20124;-46
2021/05/22 11:22:44;;;;;;;4.00;1.50;;;22.60;89.20;;;;;;5083848;28;20023;-45
2021/05/22 11:25:18;;;;;;;2.45;1.55;;;22.60;87.40;;;;;;5073775;28;20048;-46
2021/05/22 11:30:20;;;;;;;8.93;3.47;;;22.90;87.40;;;;;;5090311;28;20448;-48
2021/05/22 11:32:51;;;;;;;7.38;3.42;;;22.80;88.30;;;;;;5083764;28;20048;-46
2021/05/22 11:35:27;;;;;;;6.90;3.42;;;22.80;85.50;;;;;;5091216;28;20098;-46
2021/05/22 11:38:11;;;;;;;4.25;2.20;;;22.90;87.00;;;;;;5077702;28;20049;-45
2021/05/22 11:40:56;;;;;;;6.70;2.60;;;23.10;86.40;;;;;;5075790;28;20500;-45
2021/05/22 11:43:34;;;;;;;4.47;2.30;;;23.10;87.50;;;;;;5082831;28;20052;-46
2021/05/22 11:46:09;;;;;;;7.05;2.97;;;22.80;85.50;;;;;;5088281;28;20398;-47
2021/05/22 11:48:43;;;;;;;5.03;1.90;;;22.60;86.60;;;;;;5082955;28;20044;-45
2021/05/22 11:51:17;;;;;;;5.30;2.03;;;22.90;86.10;;;;;;5086957;28;20476;-50
2021/05/22 11:54:10;;;;;;;3.40;1.55;;;23.30;75.40;;;;;;5077948;28;20052;-45
2021/05/22 11:56:40;;;;;;;7.55;2.20;;;23.40;74.20;;;;;;5067786;28;20055;-45
2021/05/22 11:59:13;;;;;;;7.50;2.67;;;23.20;81.10;;;;;;5082207;28;20087;-45
2021/05/22 12:01:43;;;;;;;8.45;1.90;;;23.20;73.70;;;;;;5079877;28;20444;-46
2021/05/22 12:04:13;;;;;;;4.13;1.75;;;23.30;74.40;;;;;;5084213;28;20052;-46
2021/05/22 12:06:43;;;;;;;6.03;1.67;;;23.40;74.30;;;;;;5082477;28;20088;-44
2021/05/22 12:09:20;;;;;;;5.68;3.15;;;23.30;73.90;;;;;;5074931;28;20067;-46
2021/05/22 12:11:54;;;;;;;;;;;23.20;78.20;;;;;;5071067;28;20045;-47
2021/05/22 12:14:22;;;;;;;7.55;2.30;;;23.20;79.80;;;;;;5071890;28;20359;-46
2021/05/22 12:17:00;;;;;;;6.68;2.80;;;23.10;80.30;;;;;;5071005;28;20048;-47
2021/05/22 12:19:33;;;;;;;6.30;2.45;;;23.00;78.90;;;;;;5062510;28;20049;-45
2021/05/22 12:22:02;;;;;;;6.95;2.72;;;22.70;80.70;;;;;;5079792;28;20048;-45
2021/05/22 12:24:31;;;;;;;8.82;2.17;;;22.70;80.50;;;;;;5076805;28;20068;-46
2021/05/22 12:27:00;;;;;;;9.38;2.95;;;22.70;81.00;;;;;;5078547;28;20052;-44
2021/05/22 12:29:30;;;;;;;6.65;2.17;;;22.70;81.40;;;;;;5073722;28;20040;-46
2021/05/22 12:32:04;;;;;;;5.03;2.47;;;22.50;81.40;;;;;;5080408;28;20132;-45
2021/05/22 12:34:38;;;;;;;8.68;2.47;;;22.50;82.70;;;;;;5057313;28;20048;-47
2021/05/22 12:37:11;;;;;;;7.05;3.00;;;22.50;81.00;;;;;;5074391;28;20081;-47
2021/05/22 12:39:46;;;;;;;4.68;2.55;;;22.70;81.90;;;;;;5071759;28;20059;-45
2021/05/22 12:42:22;;;;;;;4.63;1.93;;;22.70;82.80;;;;;;5082225;28;20665;-45
2021/05/22 12:44:51;;;;;;;;;;;22.60;81.80;;;;;;5069850;28;20383;-45
2021/05/22 12:47:22;;;;;;;9.98;2.85;;;22.40;82.30;;;;;;5076091;28;19920;-45
2021/05/22 12:49:58;;;;;;;5.88;3.33;;;22.50;81.80;;;;;;5091176;28;20052;-47
2021/05/22 12:52:26;;;;;;;;;;;22.40;81.80;;;;;;5082069;28;20552;-48
2021/05/22 12:54:55;;;;;;;5.18;2.53;;;22.50;81.50;;;;;;5070971;28;19920;-45
2021/05/22 12:57:43;;;;;;;5.43;2.08;;;22.70;78.60;;;;;;5078193;28;20047;-45
2021/05/22 13:00:14;;;;;;;5.22;2.80;;;22.70;78.40;;;;;;5090096;28;20110;-47
2021/05/22 13:02:49;;;;;;;6.93;2.45;;;22.60;79.50;;;;;;5078724;28;20044;-45
2021/05/22 13:05:19;;;;;;;3.70;1.97;;;22.50;79.90;;;;;;5089804;28;20618;-45
2021/05/22 13:07:50;;;;;;;5.40;2.40;;;22.60;76.60;;;;;;5083282;28;20052;-46
2021/05/22 13:10:25;;;;;;;5.40;1.90;;;22.70;72.90;;;;;;5092870;28;20106;-45